createdAt,value
2023-03-22T00:02:08.722Z,5.10
2023-03-22T00:04:37.149Z,5.80
2023-03-22T00:07:04.320Z,5.70
2023-03-22T00:09:31.504Z,6.63
2023-03-22T00:11:58.572Z,6.63
2023-03-22T00:14:25.644Z,6.30
2023-03-22T00:16:52.769Z,7.27
2023-03-22T00:19:19.951Z,6.13
2023-03-22T00:21:48.375Z,6.37
2023-03-22T00:24:15.449Z,6.30
2023-03-22T00:26:42.517Z,6.87
2023-03-22T00:29:09.678Z,8.07
2023-03-22T00:31:36.793Z,6.63
2023-03-22T00:34:04.079Z,6.60
2023-03-22T00:36:31.781Z,6.77
2023-03-22T00:39:00.202Z,7.10
2023-03-22T00:41:27.262Z,7.10
2023-03-22T00:43:54.302Z,7.03
2023-03-22T00:46:21.635Z,6.83
2023-03-22T00:48:49.140Z,7.90
2023-03-22T00:51:16.269Z,7.37
2023-03-22T00:53:43.965Z,8.00
2023-03-22T00:56:13.184Z,7.77
2023-03-22T00:58:45.232Z,6.90
2023-03-22T01:01:12.700Z,6.60
2023-03-22T01:03:39.993Z,7.20
2023-03-22T01:06:08.393Z,7.30
2023-03-22T01:08:35.522Z,8.67
2023-03-22T01:11:02.644Z,8.10
2023-03-22T01:13:31.145Z,7.73
2023-03-22T01:15:58.283Z,7.27
2023-03-22T01:18:25.501Z,10.43
2023-03-22T01:20:52.683Z,7.97
2023-03-22T01:23:19.870Z,7.50
2023-03-22T01:25:47.615Z,8.17
2023-03-22T01:28:14.748Z,8.13
2023-03-22T01:30:43.411Z,8.00
2023-03-22T01:33:10.622Z,9.40
2023-03-22T01:35:37.822Z,9.50
2023-03-22T01:38:06.150Z,7.97
2023-03-22T01:40:37.403Z,8.63
2023-03-22T01:43:04.730Z,8.70
2023-03-22T01:45:36.400Z,8.43
2023-03-22T01:48:08.351Z,8.50
2023-03-22T01:50:39.123Z,9.50
2023-03-22T01:53:08.628Z,9.40
2023-03-22T01:55:37.440Z,9.47
2023-03-22T01:58:09.519Z,10.03
2023-03-22T02:00:47.226Z,8.83
2023-03-22T02:03:33.146Z,10.10
2023-03-22T02:06:00.350Z,9.30
2023-03-22T02:08:27.677Z,9.07
2023-03-22T02:10:59.006Z,10.07
2023-03-22T02:13:34.167Z,10.53
2023-03-22T02:16:24.305Z,9.87
2023-03-22T02:19:03.198Z,9.60
2023-03-22T02:21:39.387Z,8.70
2023-03-22T02:24:14.256Z,9.20
2023-03-22T02:26:59.076Z,10.00
2023-03-22T02:29:30.265Z,9.27
2023-03-22T02:32:24.106Z,10.37
2023-03-22T02:35:09.311Z,9.13
2023-03-22T02:37:51.455Z,8.90
2023-03-22T02:40:25.667Z,10.13
2023-03-22T02:42:57.003Z,8.70
2023-03-22T02:45:26.898Z,8.37
2023-03-22T02:47:56.655Z,10.50
2023-03-22T02:50:25.551Z,9.93
2023-03-22T02:52:54.508Z,10.70
2023-03-22T02:55:24.800Z,9.30
2023-03-22T02:57:54.841Z,9.30
2023-03-22T03:00:21.942Z,10.60
2023-03-22T03:02:50.644Z,10.80
2023-03-22T03:05:18.758Z,9.03
2023-03-22T03:07:47.660Z,10.63
2023-03-22T03:10:16.099Z,10.57
2023-03-22T03:12:44.804Z,9.97
2023-03-22T03:15:13.154Z,10.67
2023-03-22T03:17:46.800Z,10.80
2023-03-22T03:20:21.709Z,10.33
2023-03-22T03:22:55.814Z,10.80
2023-03-22T03:25:25.448Z,11.73
2023-03-22T03:27:58.777Z,10.80
2023-03-22T03:30:30.258Z,10.07
2023-03-22T03:32:59.746Z,10.20
2023-03-22T03:35:30.128Z,10.73
2023-03-22T03:37:58.838Z,10.30
2023-03-22T03:40:27.305Z,12.23
2023-03-22T03:42:56.877Z,10.30
2023-03-22T03:45:24.325Z,10.60
2023-03-22T03:47:53.511Z,10.13
2023-03-22T03:50:20.600Z,10.90
2023-03-22T03:52:47.730Z,10.17
2023-03-22T03:55:14.854Z,10.87
2023-03-22T03:57:41.962Z,10.10
2023-03-22T04:00:11.312Z,11.03
2023-03-22T04:02:41.450Z,9.90
2023-03-22T04:05:16.892Z,10.10
2023-03-22T04:07:44.099Z,10.47
2023-03-22T04:10:11.706Z,11.67
2023-03-22T04:12:38.788Z,10.60
2023-03-22T04:15:15.597Z,10.27
2023-03-22T04:17:45.127Z,10.43
2023-03-22T04:20:12.756Z,10.70
2023-03-22T04:22:41.294Z,10.80
2023-03-22T04:25:09.776Z,9.37
2023-03-22T04:27:36.992Z,9.17
2023-03-22T04:30:09.875Z,9.63
2023-03-22T04:32:58.585Z,9.30
2023-03-22T04:35:38.547Z,9.83
2023-03-22T04:38:05.766Z,10.03
2023-03-22T04:40:33.439Z,9.50
2023-03-22T04:43:04.253Z,8.63
2023-03-22T04:45:55.234Z,10.17
2023-03-22T04:48:27.711Z,8.80
2023-03-22T04:50:55.374Z,9.83
2023-03-22T04:53:26.208Z,9.70
2023-03-22T04:55:55.303Z,9.77
2023-03-22T04:58:22.653Z,9.77
2023-03-22T05:00:50.571Z,8.70
2023-03-22T05:03:17.668Z,9.20
2023-03-22T05:05:51.200Z,8.57
2023-03-22T05:08:19.184Z,8.33
2023-03-22T05:10:48.374Z,7.60
2023-03-22T05:13:15.496Z,6.83
2023-03-22T05:15:45.376Z,7.50
2023-03-22T05:18:14.540Z,8.20
2023-03-22T05:20:42.137Z,8.27
2023-03-22T05:23:18.130Z,7.77
2023-03-22T05:25:47.239Z,7.53
2023-03-22T05:28:17.228Z,7.60
2023-03-22T05:31:04.947Z,8.43
2023-03-22T05:33:55.069Z,7.30
2023-03-22T05:36:25.018Z,6.73
2023-03-22T05:39:20.189Z,7.20
2023-03-22T05:41:47.309Z,6.90
2023-03-22T05:44:14.702Z,7.90
2023-03-22T05:46:51.359Z,7.80
2023-03-22T05:49:34.398Z,7.07
2023-03-22T05:52:02.202Z,7.80
2023-03-22T05:54:39.251Z,8.00
2023-03-22T05:57:06.658Z,7.50
2023-03-22T05:59:33.857Z,7.27
2023-03-22T06:02:01.122Z,7.50
2023-03-22T06:04:29.162Z,8.47
2023-03-22T06:07:00.230Z,7.67
2023-03-22T06:09:36.254Z,8.10
2023-03-22T06:12:08.163Z,7.93
2023-03-22T06:14:35.980Z,8.17
2023-03-22T06:17:18.368Z,7.43
2023-03-22T06:19:47.619Z,7.63
2023-03-22T06:22:15.493Z,8.80
2023-03-22T06:24:43.599Z,8.50
2023-03-22T06:27:16.863Z,9.30
2023-03-22T06:29:44.134Z,8.40
2023-03-22T06:32:12.128Z,8.73
2023-03-22T06:34:39.288Z,8.43
2023-03-22T06:37:07.153Z,8.57
2023-03-22T06:39:37.581Z,8.07
2023-03-22T06:42:04.762Z,9.27
2023-03-22T06:44:33.998Z,7.83
2023-03-22T06:47:16.487Z,8.40
2023-03-22T06:50:12.637Z,8.60
2023-03-22T06:52:54.776Z,9.23
2023-03-22T06:55:22.155Z,8.70
2023-03-22T06:57:49.919Z,8.17
2023-03-22T07:00:19.048Z,8.70
2023-03-22T07:02:46.306Z,7.93
2023-03-22T07:05:21.122Z,7.90
2023-03-22T07:07:48.495Z,8.30
2023-03-22T07:10:15.695Z,7.40
2023-03-22T07:12:42.815Z,8.73
2023-03-22T07:15:14.360Z,7.90
2023-03-22T07:18:11.778Z,7.57
2023-03-22T07:20:39.319Z,6.07
2023-03-22T07:23:06.915Z,6.83
2023-03-22T07:25:40.889Z,5.43
2023-03-22T07:28:25.747Z,5.60
2023-03-22T07:31:00.036Z,5.10
2023-03-22T07:33:28.860Z,5.23
2023-03-22T07:35:56.949Z,4.70
2023-03-22T07:38:24.265Z,4.80
2023-03-22T07:40:52.663Z,5.07
2023-03-22T07:43:20.095Z,4.50
2023-03-22T07:45:56.562Z,3.67
2023-03-22T07:48:52.545Z,4.77
2023-03-22T07:51:38.069Z,4.07
2023-03-22T07:54:07.499Z,3.60
2023-03-22T07:56:34.805Z,3.70
2023-03-22T07:59:02.162Z,3.70
2023-03-22T08:01:30.743Z,2.93
2023-03-22T08:04:09.657Z,2.97
2023-03-22T08:07:02.829Z,3.10
2023-03-22T08:09:30.003Z,3.00
2023-03-22T08:11:57.455Z,3.87
2023-03-22T08:14:35.481Z,3.30
2023-03-22T08:17:04.872Z,2.83
2023-03-22T08:19:33.643Z,2.40
2023-03-22T08:22:01.079Z,3.00
2023-03-22T08:24:48.424Z,2.60
2023-03-22T08:27:25.404Z,3.90
2023-03-22T08:29:52.578Z,3.30
2023-03-22T08:32:19.691Z,2.87
2023-03-22T08:34:48.139Z,2.47
2023-03-22T08:37:15.225Z,3.13
2023-03-22T08:39:44.734Z,2.80
2023-03-22T08:42:33.447Z,2.90
2023-03-22T08:45:02.106Z,2.53
2023-03-22T08:47:30.358Z,2.00
2023-03-22T08:50:03.023Z,2.53
2023-03-22T08:52:56.353Z,2.73
2023-03-22T08:55:27.522Z,1.87
2023-03-22T08:58:09.530Z,2.03
2023-03-22T09:01:11.648Z,2.10
2023-03-22T09:03:44.316Z,1.80
2023-03-22T09:06:13.496Z,1.83
2023-03-22T09:08:42.595Z,1.67
2023-03-22T09:11:14.652Z,2.40
2023-03-22T09:13:43.424Z,2.83
2023-03-22T09:16:10.689Z,1.90
2023-03-22T09:18:39.234Z,1.40
2023-03-22T09:21:13.223Z,1.97
2023-03-22T09:23:50.505Z,2.00
2023-03-22T09:26:20.188Z,2.40
2023-03-22T09:28:50.566Z,2.00
2023-03-22T09:31:20.324Z,2.60
2023-03-22T09:33:49.525Z,1.90
2023-03-22T09:36:17.954Z,1.67
2023-03-22T09:38:45.079Z,1.73
2023-03-22T09:41:14.073Z,1.50
2023-03-22T09:43:43.334Z,1.87
2023-03-22T09:46:14.621Z,1.90
2023-03-22T09:48:43.210Z,1.73
2023-03-22T09:51:17.048Z,1.60
2023-03-22T09:53:45.446Z,1.70
2023-03-22T09:56:15.213Z,1.77
2023-03-22T09:58:47.033Z,2.17
2023-03-22T10:01:19.615Z,1.57
2023-03-22T10:03:59.737Z,2.30
2023-03-22T10:06:28.981Z,1.80
2023-03-22T10:09:01.849Z,1.40
2023-03-22T10:11:34.503Z,1.50
2023-03-22T10:14:03.226Z,1.50
2023-03-22T10:16:32.491Z,1.57
2023-03-22T10:19:03.842Z,2.10
2023-03-22T10:21:30.926Z,2.53
2023-03-22T10:24:01.048Z,1.70
2023-03-22T10:26:29.009Z,1.50
2023-03-22T10:28:57.731Z,1.70
2023-03-22T10:31:25.161Z,2.27
2023-03-22T10:33:55.228Z,1.60
2023-03-22T10:36:24.434Z,1.80
2023-03-22T10:38:53.382Z,2.60
2023-03-22T10:41:23.990Z,1.80
2023-03-22T10:43:52.428Z,2.23
2023-03-22T10:46:21.173Z,1.60
2023-03-22T10:48:50.243Z,1.60
2023-03-22T10:51:21.086Z,1.80
2023-03-22T10:53:49.983Z,1.60
2023-03-22T10:56:17.840Z,1.77
2023-03-22T10:58:46.702Z,2.33
2023-03-22T11:01:14.966Z,1.50
2023-03-22T11:03:42.993Z,1.30
2023-03-22T11:06:11.900Z,1.87
2023-03-22T11:08:39.777Z,1.50
2023-03-22T11:11:15.777Z,1.57
2023-03-22T11:13:43.098Z,1.30
2023-03-22T11:16:11.751Z,1.57
2023-03-22T11:18:41.980Z,1.70
2023-03-22T11:21:11.041Z,1.73
2023-03-22T11:23:39.406Z,1.80
2023-03-22T11:26:08.292Z,2.03
2023-03-22T11:28:36.458Z,3.03
2023-03-22T11:31:05.944Z,2.00
2023-03-22T11:33:35.314Z,1.30
2023-03-22T11:36:03.402Z,1.23
2023-03-22T11:38:35.598Z,1.20
2023-03-22T11:41:03.815Z,2.23
2023-03-22T11:43:36.095Z,1.50
2023-03-22T11:46:03.615Z,1.30
2023-03-22T11:48:32.354Z,1.30
2023-03-22T11:51:05.164Z,1.97
2023-03-22T11:53:33.654Z,1.77
2023-03-22T11:56:01.077Z,1.33
2023-03-22T11:58:29.706Z,1.67
2023-03-22T12:00:59.483Z,1.67
2023-03-22T12:03:28.489Z,1.40
2023-03-22T12:05:55.869Z,1.47
2023-03-22T12:08:26.797Z,1.23
2023-03-22T12:10:57.042Z,1.50
2023-03-22T12:13:25.842Z,1.20
2023-03-22T12:15:54.684Z,1.57
2023-03-22T12:18:26.791Z,2.00
2023-03-22T12:20:55.140Z,1.77
2023-03-22T12:23:23.519Z,1.40
2023-03-22T12:25:54.057Z,1.40
2023-03-22T12:28:22.850Z,1.47
2023-03-22T12:30:51.915Z,1.70
2023-03-22T12:33:21.632Z,1.60
2023-03-22T12:35:50.244Z,2.20
2023-03-22T12:38:23.408Z,1.23
2023-03-22T12:40:53.166Z,1.77
2023-03-22T12:43:26.325Z,3.40
2023-03-22T12:45:55.925Z,1.60
2023-03-22T12:48:28.465Z,1.70
2023-03-22T12:50:57.362Z,1.40
2023-03-22T12:53:26.884Z,1.63
2023-03-22T12:55:55.800Z,1.63
2023-03-22T12:58:24.058Z,2.37
2023-03-22T13:00:53.473Z,1.30
2023-03-22T13:03:23.764Z,1.80
2023-03-22T13:05:59.390Z,1.80
2023-03-22T13:08:26.773Z,1.83
2023-03-22T13:11:02.735Z,2.47
2023-03-22T13:13:47.549Z,1.70
2023-03-22T13:16:16.331Z,1.40
2023-03-22T13:18:57.692Z,1.77
2023-03-22T13:21:25.574Z,1.33
2023-03-22T13:23:57.365Z,2.20
2023-03-22T13:26:28.427Z,1.80
2023-03-22T13:28:57.132Z,2.30
2023-03-22T13:31:33.024Z,1.80
2023-03-22T13:34:01.805Z,2.33
2023-03-22T13:36:30.584Z,1.70
2023-03-22T13:38:58.734Z,2.03
2023-03-22T13:41:29.648Z,1.80
2023-03-22T13:43:58.200Z,1.67
2023-03-22T13:46:45.200Z,1.73
2023-03-22T13:49:23.985Z,1.77
2023-03-22T13:51:51.672Z,2.33
2023-03-22T13:54:21.308Z,1.73
2023-03-22T13:56:51.956Z,1.63
2023-03-22T13:59:20.374Z,1.60
2023-03-22T14:01:48.719Z,1.93
2023-03-22T14:04:17.224Z,2.20
2023-03-22T14:06:48.520Z,1.73
2023-03-22T14:09:21.508Z,2.67
2023-03-22T14:11:55.220Z,1.70
2023-03-22T14:14:26.638Z,2.43
2023-03-22T14:16:59.200Z,2.43
2023-03-22T14:19:29.077Z,2.30
